Time;durP1;ratioP1;P1;durP2;ratioP2;P2;SDS_P1;SDS_P2;PMS_P1;PMS_P2;Temp;Humidity;BMP_temperature;BMP_pressure;BME280_temperature;BME280_humidity;BME280_pressure;Samples;Min_cycle;Max_cycle;Signal;HPM_P1;HPM_P2
2023/09/17 00:00:27;;;;;;;2.60;2.17;;;;;;;21.38;57.40;98658.13;5090254;28;41179;-78
2023/09/17 00:02:55;;;;;;;3.17;2.40;;;;;;;21.40;57.81;98661.47;5072910;28;38944;-79
2023/09/17 00:05:23;;;;;;;2.60;2.40;;;;;;;21.38;57.41;98663.53;5090900;28;42918;-77
2023/09/17 00:07:52;;;;;;;3.00;2.40;;;;;;;21.36;57.11;98669.09;5072731;28;43157;-80
2023/09/17 00:10:20;;;;;;;2.87;2.53;;;;;;;21.36;56.71;98665.53;5073269;28;42159;-80
2023/09/17 00:12:47;;;;;;;2.20;2.00;;;;;;;21.34;56.20;98663.00;5090603;28;40117;-77
2023/09/17 00:15:15;;;;;;;2.47;2.23;;;;;;;21.31;56.17;98659.81;5108234;28;40995;-80
2023/09/17 00:17:42;;;;;;;2.70;2.07;;;;;;;21.32;56.41;98665.03;5090896;28;43922;-80
2023/09/17 00:20:11;;;;;;;2.87;2.37;;;;;;;21.32;56.44;98672.28;5092639;28;42220;-80
2023/09/17 00:22:38;;;;;;;3.43;2.33;;;;;;;21.28;56.43;98668.22;5090886;28;38642;-80
2023/09/17 00:25:08;;;;;;;2.67;2.13;;;;;;;21.23;56.32;98659.81;5074232;28;40843;-78
2023/09/17 00:27:35;;;;;;;2.73;2.47;;;;;;;21.15;56.05;98661.44;5090975;28;43386;-78
2023/09/17 00:30:04;;;;;;;2.33;2.13;;;;;;;21.16;56.09;98663.13;5092341;28;42297;-77
2023/09/17 00:32:33;;;;;;;2.77;2.53;;;;;;;21.14;56.34;98662.44;5073917;28;38959;-79
2023/09/17 00:35:00;;;;;;;2.40;2.20;;;;;;;21.10;56.22;98663.81;5092151;28;41875;-79
2023/09/17 00:37:28;;;;;;;2.43;2.23;;;;;;;21.11;56.27;98670.88;5090769;28;41941;-78
2023/09/17 00:39:55;;;;;;;2.23;2.03;;;;;;;21.10;56.38;98671.91;5074135;28;41063;-79
2023/09/17 00:42:24;;;;;;;3.63;2.20;;;;;;;21.09;56.36;98664.81;5089261;28;39815;-80
2023/09/17 00:44:52;;;;;;;2.33;2.13;;;;;;;21.02;56.36;98658.41;5089905;28;40784;-79
2023/09/17 00:47:20;;;;;;;2.00;1.87;;;;;;;21.08;56.19;98668.53;5072810;28;41423;-79
2023/09/17 00:49:48;;;;;;;1.97;1.77;;;;;;;21.08;56.29;98670.38;5123924;27;43129;-80
2023/09/17 00:52:20;;;;;;;2.23;2.03;;;;;;;21.03;56.79;98659.25;5123698;27;40098;-78
2023/09/17 00:54:51;;;;;;;2.97;2.07;;;;;;;21.06;57.01;98669.69;5086976;28;41726;-77
2023/09/17 00:57:21;;;;;;;2.27;2.07;;;;;;;21.05;56.92;98658.09;5105975;28;42878;-81
2023/09/17 00:59:50;;;;;;;2.20;2.00;;;;;;;20.93;57.26;98648.63;5073047;28;42878;-78
2023/09/17 01:02:21;;;;;;;2.30;2.10;;;;;;;21.02;57.49;98674.56;5072459;28;38950;-78
2023/09/17 01:04:51;;;;;;;2.77;2.50;;;;;;;20.94;57.50;98666.47;5086691;28;42781;-79
2023/09/17 01:07:19;;;;;;;2.47;2.27;;;;;;;20.92;57.19;98676.56;5088937;28;42557;-79
2023/09/17 01:09:47;;;;;;;2.03;1.83;;;;;;;20.79;57.42;98662.75;5106352;28;42242;-77
2023/09/17 01:12:16;;;;;;;2.13;1.93;;;;;;;20.83;57.71;98674.88;5072664;28;38890;-80
2023/09/17 01:14:44;;;;;;;1.87;1.77;;;;;;;20.80;58.03;98675.19;5125137;27;41784;-80
2023/09/17 01:17:13;;;;;;;2.70;2.50;;;;;;;20.76;58.60;98665.78;5110635;28;41646;-77
2023/09/17 01:19:43;;;;;;;2.50;2.30;;;;;;;20.72;58.84;98670.66;5128493;27;42257;-78
2023/09/17 01:22:17;;;;;;;2.87;2.57;;;;;;;20.65;58.77;98671.47;5093776;28;40117;-78
2023/09/17 01:24:49;;;;;;;2.40;2.20;;;;;;;20.55;58.59;98655.47;5076738;28;40631;-78
2023/09/17 01:27:19;;;;;;;2.30;2.10;;;;;;;20.39;58.21;98634.75;5082835;28;42644;-78
2023/09/17 01:29:47;;;;;;;2.50;2.00;;;;;;;20.54;58.61;98659.16;5080814;28;41481;-78
2023/09/17 01:32:17;;;;;;;2.60;2.40;;;;;;;20.63;59.08;98668.13;5077962;28;38826;-78
2023/09/17 01:34:49;;;;;;;2.33;2.13;;;;;;;20.53;59.34;98649.41;5108801;28;40194;-78
2023/09/17 01:37:23;;;;;;;2.20;2.03;;;;;;;20.63;59.18;98668.13;5090577;28;42968;-78
2023/09/17 01:39:55;;;;;;;2.63;2.43;;;;;;;20.62;58.98;98663.75;5092655;28;41163;-78
2023/09/17 01:42:25;;;;;;;1.93;1.73;;;;;;;20.65;58.43;98666.06;5109695;28;40035;-78
2023/09/17 01:44:55;;;;;;;2.10;1.90;;;;;;;20.58;58.60;98659.69;5126992;27;42419;-78
2023/09/17 01:47:23;;;;;;;2.00;1.90;;;;;;;20.63;58.34;98668.97;5092389;28;43898;-79
2023/09/17 01:49:51;;;;;;;2.30;1.97;;;;;;;20.66;58.24;98667.75;5126865;27;42241;-81
2023/09/17 01:52:24;;;;;;;2.40;2.10;;;;;;;20.66;58.70;98679.38;5092241;28;40890;-81
2023/09/17 01:54:52;;;;;;;2.50;2.30;;;;;;;20.61;58.91;98675.50;5089483;28;41410;-80
2023/09/17 01:57:20;;;;;;;2.10;1.90;;;;;;;20.67;58.71;98686.44;5092289;28;43769;-79
2023/09/17 01:59:49;;;;;;;2.20;2.00;;;;;;;20.68;58.80;98681.91;5109151;28;41101;-79
2023/09/17 02:02:16;;;;;;;2.30;2.10;;;;;;;20.59;58.80;98667.59;5093265;28;40541;-78
2023/09/17 02:04:44;;;;;;;2.77;2.17;;;;;;;20.62;59.35;98666.44;5093311;28;41851;-79
2023/09/17 02:07:12;;;;;;;2.43;2.23;;;;;;;20.71;60.64;98668.13;5091879;28;43802;-80
2023/09/17 02:09:40;;;;;;;3.10;2.80;;;;;;;20.69;62.05;98672.81;5075283;28;41592;-80
2023/09/17 02:12:07;;;;;;;3.47;3.17;;;;;;;20.67;62.92;98669.44;5091991;28;40858;-80
2023/09/17 02:14:35;;;;;;;2.83;2.60;;;;;;;20.64;62.68;98664.41;5127281;27;42059;-79
2023/09/17 02:17:04;;;;;;;3.83;3.30;;;;;;;20.62;63.82;98661.03;5092637;28;42672;-80
2023/09/17 02:19:32;;;;;;;3.70;3.13;;;;;;;20.59;64.05;98655.97;5075999;28;43972;-79
2023/09/17 02:21:59;;;;;;;3.30;3.00;;;;;;;20.51;63.48;98654.13;5126625;27;39884;-79
2023/09/17 02:24:27;;;;;;;2.90;2.70;;;;;;;20.54;62.85;98674.44;5075145;28;40952;-78
2023/09/17 02:26:54;;;;;;;3.27;2.90;;;;;;;20.53;62.87;98667.38;5091822;28;42838;-80
2023/09/17 02:29:21;;;;;;;3.17;2.87;;;;;;;20.53;62.64;98670.06;5108998;28;41210;-80
2023/09/17 02:31:49;;;;;;;3.93;2.90;;;;;;;20.51;62.99;98664.03;5091552;28;38735;-79
2023/09/17 02:34:18;;;;;;;3.50;3.20;;;;;;;20.54;62.98;98663.69;5074969;28;40891;-79
2023/09/17 02:36:45;;;;;;;3.80;3.27;;;;;;;20.53;63.10;98667.38;5126618;27;42804;-78
2023/09/17 02:39:13;;;;;;;3.57;3.27;;;;;;;20.52;63.08;98671.94;5092564;28;42215;-78
2023/09/17 02:41:41;;;;;;;3.97;3.10;;;;;;;20.38;62.64;98651.06;5092875;28;40134;-78
2023/09/17 02:44:08;;;;;;;2.70;2.40;;;;;;;20.56;63.08;98662.53;5091014;28;42373;-78
2023/09/17 02:46:36;;;;;;;3.07;2.77;;;;;;;20.51;63.48;98653.28;5074587;28;41898;-77
2023/09/17 02:49:04;;;;;;;3.00;2.60;;;;;;;20.60;63.40;98654.97;5091637;28;42011;-80
2023/09/17 02:51:32;;;;;;;3.63;2.90;;;;;;;20.60;62.81;98658.50;5074717;28;38701;-78
2023/09/17 02:54:00;;;;;;;3.37;2.37;;;;;;;20.65;62.68;98671.47;5074466;28;40957;-80
2023/09/17 02:56:27;;;;;;;2.93;2.63;;;;;;;20.59;62.92;98659.50;5091019;28;43942;-79
2023/09/17 02:58:55;;;;;;;3.00;2.80;;;;;;;20.62;62.81;98667.28;5125750;27;41957;-80
2023/09/17 03:01:24;;;;;;;2.73;2.50;;;;;;;20.69;62.42;98673.66;5091371;28;38941;-79
2023/09/17 03:03:51;;;;;;;2.57;2.20;;;;;;;20.61;62.09;98648.59;5074463;28;41740;-80
2023/09/17 03:06:19;;;;;;;3.37;2.30;;;;;;;20.70;62.59;98666.44;5074219;28;42770;-78
2023/09/17 03:08:48;;;;;;;2.67;2.37;;;;;;;20.69;62.38;98659.38;5107903;28;40821;-80
2023/09/17 03:11:17;;;;;;;2.77;2.57;;;;;;;20.70;61.89;98661.06;5108222;28;39169;-79
2023/09/17 03:13:46;;;;;;;2.50;2.30;;;;;;;20.70;61.67;98663.75;5074760;28;40552;-78
2023/09/17 03:16:16;;;;;;;3.57;2.70;;;;;;;20.70;61.38;98663.75;5092092;28;42708;-79
2023/09/17 03:18:45;;;;;;;2.70;2.50;;;;;;;20.74;61.33;98670.50;5091611;28;42332;-79
2023/09/17 03:21:14;;;;;;;2.53;2.33;;;;;;;20.76;61.17;98679.25;5075000;28;39786;-79
2023/09/17 03:23:41;;;;;;;3.23;2.63;;;;;;;20.77;61.79;98678.25;5108596;28;42060;-78
2023/09/17 03:26:10;;;;;;;2.60;2.40;;;;;;;20.76;61.81;98671.19;5125766;27;43678;-80
2023/09/17 03:28:38;;;;;;;3.03;2.73;;;;;;;20.77;61.37;98675.56;5091531;28;43231;-79
2023/09/17 03:31:06;;;;;;;2.73;2.53;;;;;;;20.77;61.45;98676.38;5092923;28;40021;-80
2023/09/17 03:33:34;;;;;;;2.80;2.23;;;;;;;20.78;61.48;98677.22;5091515;28;41799;-79
2023/09/17 03:36:03;;;;;;;3.30;2.50;;;;;;;20.75;61.91;98673.03;5092074;28;43677;-78
2023/09/17 03:38:30;;;;;;;3.07;2.73;;;;;;;20.74;61.70;98675.88;5125099;27;42106;-79
2023/09/17 03:41:00;;;;;;;2.50;2.20;;;;;;;20.71;61.72;98668.13;5074431;28;38944;-79
2023/09/17 03:43:30;;;;;;;2.53;2.07;;;;;;;20.69;61.67;98672.81;5089392;28;41542;-77
2023/09/17 03:45:58;;;;;;;2.63;2.30;;;;;;;20.64;61.30;98661.72;5090527;28;42435;-77
2023/09/17 03:48:26;;;;;;;2.30;2.10;;;;;;;20.57;61.27;98660.69;5073377;28;41078;-80
2023/09/17 03:50:54;;;;;;;2.30;2.10;;;;;;;20.64;61.46;98675.19;5090883;28;40664;-78
2023/09/17 03:53:21;;;;;;;2.43;2.23;;;;;;;20.50;61.22;98662.34;5073618;28;40423;-79
2023/09/17 03:55:51;;;;;;;2.60;2.40;;;;;;;20.52;61.04;98676.50;5090387;28;42898;-80
2023/09/17 03:58:18;;;;;;;2.10;2.00;;;;;;;20.49;61.37;98676.81;5124560;27;42094;-78
2023/09/17 04:00:48;;;;;;;2.57;2.37;;;;;;;20.44;61.42;98680.81;5073414;28;38764;-78
2023/09/17 04:03:19;;;;;;;2.57;2.37;;;;;;;20.35;61.35;98671.03;5124491;27;41516;-77
2023/09/17 04:05:48;;;;;;;1.90;1.80;;;;;;;20.32;61.45;98676.69;5107006;28;41898;-80
2023/09/17 04:08:16;;;;;;;2.10;1.80;;;;;;;20.28;61.39;98680.72;5072991;28;41665;-80
2023/09/17 04:10:43;;;;;;;3.80;2.20;;;;;;;20.23;61.53;98679.53;5073375;28;38769;-77
2023/09/17 04:13:12;;;;;;;2.43;2.20;;;;;;;20.17;61.64;98683.69;5073698;28;40745;-78
2023/09/17 04:15:39;;;;;;;2.50;2.30;;;;;;;20.12;61.28;98691.41;5091034;28;42783;-80
2023/09/17 04:18:10;;;;;;;2.47;2.27;;;;;;;20.07;61.67;98688.34;5124942;27;42778;-78
2023/09/17 04:20:37;;;;;;;2.33;2.13;;;;;;;20.02;61.99;98679.94;5125636;27;39866;-80
2023/09/17 04:23:06;;;;;;;2.20;2.00;;;;;;;19.95;62.32;98678.88;5091214;28;41628;-78
2023/09/17 04:25:35;;;;;;;3.73;2.27;;;;;;;19.94;62.39;98671.81;5073861;28;42787;-78
2023/09/17 04:28:04;;;;;;;2.77;2.27;;;;;;;19.90;62.62;98681.22;5073883;28;41320;-78
2023/09/17 04:30:32;;;;;;;2.90;2.20;;;;;;;19.61;62.81;98634.00;5125342;27;39944;-79
2023/09/17 04:33:01;;;;;;;2.70;2.50;;;;;;;19.84;63.07;98669.22;5073808;28;41127;-79
2023/09/17 04:35:31;;;;;;;3.07;2.27;;;;;;;19.84;63.30;98677.28;5107752;28;42065;-79
2023/09/17 04:37:59;;;;;;;2.30;2.10;;;;;;;19.86;62.98;98682.53;5107588;28;41046;-78
2023/09/17 04:40:31;;;;;;;2.37;2.17;;;;;;;19.86;62.63;98683.38;5091111;28;40112;-79
2023/09/17 04:43:03;;;;;;;2.57;2.37;;;;;;;19.90;64.29;98675.84;5122212;27;42382;-78
2023/09/17 04:45:33;;;;;;;2.57;2.37;;;;;;;19.80;64.01;98653.56;5098935;28;42474;-78
2023/09/17 04:48:01;;;;;;;2.80;2.60;;;;;;;19.94;63.58;98685.25;5099747;28;42646;-80
2023/09/17 04:50:31;;;;;;;2.50;2.30;;;;;;;19.95;63.29;98692.31;5108495;27;38756;-78
2023/09/17 04:53:00;;;;;;;2.40;2.20;;;;;;;19.91;62.79;98683.72;5075939;28;41847;-78
2023/09/17 04:55:28;;;;;;;2.40;2.20;;;;;;;19.93;62.90;98699.69;5110063;28;41914;-78
2023/09/17 04:57:56;;;;;;;2.47;2.23;;;;;;;19.80;62.69;98685.81;5109593;28;42299;-79
2023/09/17 05:00:23;;;;;;;3.40;2.50;;;;;;;19.85;63.17;98702.31;5075934;28;39306;-78
2023/09/17 05:02:51;;;;;;;2.77;2.20;;;;;;;19.77;63.02;98700.44;5092725;28;41796;-79
2023/09/17 05:05:20;;;;;;;2.53;2.30;;;;;;;19.64;63.05;98695.47;5092779;28;42936;-80
2023/09/17 05:07:49;;;;;;;2.50;2.30;;;;;;;19.67;63.48;98708.59;5074923;28;42327;-80
2023/09/17 05:10:17;;;;;;;2.13;1.97;;;;;;;19.62;63.76;98697.47;5109694;28;39298;-79
2023/09/17 05:12:44;;;;;;;2.50;2.30;;;;;;;19.51;63.57;98689.69;5075626;28;41839;-78
2023/09/17 05:15:12;;;;;;;2.30;2.10;;;;;;;19.55;63.73;98699.09;5093595;28;42781;-79
2023/09/17 05:17:41;;;;;;;2.30;2.10;;;;;;;19.52;64.00;98694.06;5093472;28;42335;-78
2023/09/17 05:20:09;;;;;;;3.50;2.50;;;;;;;19.48;64.15;98697.16;5076602;28;39098;-80
2023/09/17 05:22:36;;;;;;;4.50;2.33;;;;;;;19.46;64.10;98697.31;5076296;28;40898;-78
2023/09/17 05:25:09;;;;;;;3.63;2.93;;;;;;;19.43;65.74;98684.19;5093415;28;43090;-78
2023/09/17 05:27:37;;;;;;;3.27;2.80;;;;;;;19.42;67.27;98678.97;5125931;27;42302;-79
2023/09/17 05:30:06;;;;;;;3.00;2.70;;;;;;;19.32;66.93;98676.38;5127632;27;40927;-81
2023/09/17 05:32:33;;;;;;;3.20;2.70;;;;;;;19.39;66.08;98690.88;5092848;28;41855;-78
2023/09/17 05:35:03;;;;;;;3.07;2.63;;;;;;;19.40;65.92;98700.63;5110348;28;41849;-80
2023/09/17 05:37:31;;;;;;;2.80;2.47;;;;;;;19.39;65.41;98709.69;5127127;27;42254;-78
2023/09/17 05:40:01;;;;;;;2.60;2.40;;;;;;;19.40;65.03;98719.44;5076372;28;40126;-79
2023/09/17 05:42:31;;;;;;;2.80;2.60;;;;;;;19.40;65.34;98721.28;5091349;28;42066;-80
2023/09/17 05:44:59;;;;;;;2.37;2.17;;;;;;;19.40;64.93;98727.50;5126223;27;43745;-80
2023/09/17 05:47:27;;;;;;;3.03;2.60;;;;;;;19.23;64.92;98706.84;5108393;28;41183;-79
2023/09/17 05:49:57;;;;;;;2.80;2.50;;;;;;;19.12;65.25;98682.94;5092443;28;40890;-79
2023/09/17 05:52:28;;;;;;;3.53;2.87;;;;;;;19.40;66.80;98716.75;5089995;28;42003;-80
2023/09/17 05:54:56;;;;;;;4.50;2.90;;;;;;;19.41;67.84;98702.28;5091986;28;43789;-80
2023/09/17 05:57:23;;;;;;;3.30;2.70;;;;;;;19.43;67.51;98705.69;5108530;28;41104;-80
2023/09/17 05:59:52;;;;;;;3.37;3.07;;;;;;;19.44;67.05;98712.72;5109021;28;40474;-79
2023/09/17 06:02:20;;;;;;;3.10;2.80;;;;;;;19.44;66.39;98707.38;5074488;28;40825;-78
2023/09/17 06:04:52;;;;;;;2.97;2.73;;;;;;;19.63;66.26;98728.72;5074573;28;42298;-79
2023/09/17 06:07:20;;;;;;;3.77;2.87;;;;;;;19.73;65.77;98726.78;5090724;28;41320;-80
2023/09/17 06:09:47;;;;;;;3.00;2.50;;;;;;;19.85;65.66;98727.38;5075126;28;38802;-80
2023/09/17 06:12:15;;;;;;;2.93;2.63;;;;;;;19.97;65.33;98730.63;5074948;28;41879;-78
2023/09/17 06:14:43;;;;;;;3.03;2.67;;;;;;;20.09;64.79;98721.28;5109421;28;43843;-80
2023/09/17 06:17:13;;;;;;;2.83;2.63;;;;;;;20.31;64.66;98734.19;5075308;28;42621;-79
2023/09/17 06:19:40;;;;;;;2.90;2.60;;;;;;;20.48;63.97;98734.31;5075612;28;41035;-78
2023/09/17 06:22:08;;;;;;;3.20;2.90;;;;;;;20.63;63.72;98736.22;5092246;28;41761;-80
2023/09/17 06:24:35;;;;;;;3.80;3.03;;;;;;;20.72;63.66;98723.63;5126593;27;43751;-80
2023/09/17 06:27:04;;;;;;;2.97;2.70;;;;;;;20.85;63.34;98742.84;5074987;28;41008;-78
2023/09/17 06:29:32;;;;;;;4.03;3.10;;;;;;;20.89;63.16;98730.75;5092338;28;39865;-78
2023/09/17 06:32:00;;;;;;;3.00;2.70;;;;;;;21.09;63.35;98750.16;5075180;28;42058;-80
2023/09/17 06:34:30;;;;;;;2.97;2.63;;;;;;;21.22;62.88;98755.09;5092095;28;42806;-79
2023/09/17 06:36:58;;;;;;;2.80;2.60;;;;;;;21.03;62.38;98708.56;5126160;27;44270;-79
2023/09/17 06:39:26;;;;;;;3.33;3.03;;;;;;;21.46;62.78;98757.81;5092463;28;39677;-79
2023/09/17 06:41:54;;;;;;;3.43;2.77;;;;;;;21.66;62.39;98763.72;5073887;28;41637;-80
2023/09/17 06:44:23;;;;;;;4.23;3.03;;;;;;;21.67;62.06;98750.06;5091877;28;42524;-79
2023/09/17 06:46:51;;;;;;;3.60;2.83;;;;;;;21.92;62.01;98774.31;5074165;28;41191;-79
2023/09/17 06:49:19;;;;;;;3.93;2.60;;;;;;;22.06;61.56;98770.97;5125305;27;40033;-78
2023/09/17 06:51:48;;;;;;;3.97;3.20;;;;;;;22.21;61.48;98775.50;5090875;28;41030;-78
2023/09/17 06:54:16;;;;;;;4.83;3.40;;;;;;;22.42;60.90;98777.63;5092170;28;42717;-80
2023/09/17 06:56:44;;;;;;;3.50;3.20;;;;;;;22.62;60.53;98771.84;5090439;28;43230;-81
2023/09/17 06:59:11;;;;;;;3.30;3.00;;;;;;;22.85;59.61;98780.91;5091111;28;40654;-80
2023/09/17 07:01:41;;;;;;;3.57;3.27;;;;;;;23.15;58.98;98774.66;5091846;28;41608;-79
2023/09/17 07:04:09;;;;;;;3.60;3.30;;;;;;;23.99;56.86;98789.09;5073870;28;41988;-80
2023/09/17 07:06:36;;;;;;;4.83;3.60;;;;;;;25.36;53.86;98799.41;5073518;28;41743;-80
2023/09/17 07:09:07;;;;;;;3.93;3.53;;;;;;;26.64;50.65;98811.06;5088854;28;40730;-81
2023/09/17 07:11:35;;;;;;;3.73;3.43;;;;;;;27.42;49.24;98819.81;5073072;28;42035;-78
2023/09/17 07:14:08;;;;;;;3.80;3.50;;;;;;;27.99;47.77;98815.78;5090580;28;42996;-81
2023/09/17 07:16:36;;;;;;;4.60;3.20;;;;;;;28.35;47.24;98827.13;5088688;28;43560;-80
2023/09/17 07:19:05;;;;;;;3.53;3.23;;;;;;;28.40;46.62;98807.44;5093080;28;40001;-79
2023/09/17 07:21:32;;;;;;;4.30;3.60;;;;;;;28.38;47.02;98818.53;5092366;28;41731;-82
2023/09/17 07:24:00;;;;;;;4.03;3.23;;;;;;;28.37;46.38;98816.84;5091316;28;43230;-79
2023/09/17 07:26:29;;;;;;;3.47;3.17;;;;;;;28.50;46.86;98805.09;5091121;28;41946;-78
2023/09/17 07:28:57;;;;;;;3.67;3.20;;;;;;;28.57;47.20;98803.19;5091170;28;40243;-78
2023/09/17 07:31:24;;;;;;;3.63;3.33;;;;;;;28.68;46.92;98799.84;5091020;28;40685;-78
2023/09/17 07:33:52;;;;;;;3.60;3.30;;;;;;;29.11;45.13;98821.13;5125354;27;42799;-78
2023/09/17 07:36:19;;;;;;;4.20;3.90;;;;;;;29.96;43.52;98817.16;5091070;28;41311;-80
2023/09/17 07:38:46;;;;;;;4.00;3.53;;;;;;;30.81;42.00;98829.22;5074354;28;39061;-79
2023/09/17 07:41:14;;;;;;;3.63;3.33;;;;;;;31.50;41.22;98833.50;5090306;28;41759;-78
2023/09/17 07:43:43;;;;;;;3.70;3.40;;;;;;;31.94;40.81;98824.03;5088732;28;42829;-78
2023/09/17 07:46:13;;;;;;;3.63;3.33;;;;;;;32.83;38.70;98855.06;5090934;28;42919;-78
2023/09/17 07:48:40;;;;;;;3.72;3.45;;;;;;;34.01;36.51;98848.19;5106624;28;38221;-78
2023/09/17 07:51:08;;;;;;;4.55;4.15;;;;;;;35.62;33.87;98876.56;5090017;28;41059;-78
2023/09/17 07:53:35;;;;;;;3.55;3.30;;;;;;;35.58;34.12;98879.03;5072729;28;41684;-80
2023/09/17 07:56:03;;;;;;;3.50;3.20;;;;;;;34.67;34.73;98865.84;5072720;28;42202;-78
2023/09/17 07:58:30;;;;;;;3.37;3.13;;;;;;;34.02;36.00;98863.63;5091143;28;40070;-77
2023/09/17 08:00:59;;;;;;;3.87;3.57;;;;;;;33.63;36.40;98866.13;5090102;28;41768;-80
2023/09/17 08:03:26;;;;;;;3.73;3.20;;;;;;;33.08;37.08;98858.38;5094122;28;42828;-79
2023/09/17 08:05:55;;;;;;;3.40;3.07;;;;;;;32.42;37.94;98848.59;5076212;28;42433;-78
2023/09/17 08:08:23;;;;;;;3.70;3.17;;;;;;;32.15;38.77;98858.28;5072488;28;40007;-80
2023/09/17 08:10:50;;;;;;;3.80;3.50;;;;;;;32.11;38.82;98852.44;5089639;28;41936;-79
2023/09/17 08:13:18;;;;;;;3.73;3.43;;;;;;;32.52;38.81;98860.91;5072891;28;42075;-77
2023/09/17 08:15:49;;;;;;;3.87;3.57;;;;;;;32.95;37.73;98864.13;5090617;28;41997;-78
2023/09/17 08:18:18;;;;;;;4.10;3.80;;;;;;;33.08;37.86;98868.53;5090470;28;39910;-78
2023/09/17 08:20:45;;;;;;;4.27;3.50;;;;;;;33.09;38.17;98861.97;5090697;28;40865;-79
2023/09/17 08:23:13;;;;;;;4.00;3.70;;;;;;;33.91;36.67;98870.84;5073597;28;43157;-78
2023/09/17 08:25:53;;;;;;;4.15;3.75;;;;;;;35.00;34.64;98885.09;5095852;28;42795;-80
2023/09/17 08:28:42;;;;;;;3.90;3.60;;;;;;;35.99;33.85;98880.34;5095346;28;40441;-79
2023/09/17 08:31:29;;;;;;;3.70;3.40;;;;;;;36.56;33.38;98868.75;5093983;28;41598;-78
2023/09/17 08:34:18;;;;;;;3.92;3.63;;;;;;;37.11;31.71;98889.56;5080288;28;42585;-78
2023/09/17 08:36:51;;;;;;;3.90;3.60;;;;;;;37.95;30.65;98889.47;5093695;28;41155;-78
2023/09/17 08:39:19;;;;;;;3.95;3.65;;;;;;;39.01;28.93;98904.50;5094349;28;40101;-80
2023/09/17 08:41:47;;;;;;;3.55;3.25;;;;;;;39.19;29.14;98903.94;5092756;28;41968;-79
2023/09/17 08:44:17;;;;;;;3.42;3.17;;;;;;;39.18;29.06;98898.66;5109550;28;41759;-79
2023/09/17 08:46:45;;;;;;;3.42;3.13;;;;;;;39.71;28.32;98886.00;5075654;28;41239;-78
2023/09/17 08:49:13;;;;;;;4.28;3.97;;;;;;;41.42;26.32;98919.13;5076082;28;40073;-78
2023/09/17 08:51:44;;;;;;;3.20;2.90;;;;;;;43.38;24.39;98929.56;5126582;27;42017;-79
2023/09/17 08:54:18;;;;;;;3.25;3.05;;;;;;;45.08;22.39;98925.13;5092937;28;43455;-81
2023/09/17 08:56:47;;;;;;;3.15;2.95;;;;;;;46.50;20.90;98929.34;5091237;28;42165;-80
2023/09/17 08:59:20;;;;;;;2.80;2.60;;;;;;;47.92;20.40;98939.53;5092718;28;40245;-78
2023/09/17 09:01:49;;;;;;;3.42;3.13;;;;;;;48.65;19.71;98931.56;5123877;27;41858;-81
2023/09/17 09:04:17;;;;;;;3.03;2.83;;;;;;;48.32;19.48;98931.50;5092540;28;43061;-79
2023/09/17 09:06:47;;;;;;;2.85;2.65;;;;;;;47.11;19.61;98932.91;5092964;28;43140;-80
2023/09/17 09:09:16;;;;;;;3.25;3.05;;;;;;;45.67;21.26;98883.75;5092770;28;39213;-80
2023/09/17 09:11:44;;;;;;;2.80;2.60;;;;;;;45.24;21.93;98911.59;5093218;28;41719;-78
2023/09/17 09:14:11;;;;;;;2.80;2.55;;;;;;;45.66;21.36;98918.50;5093269;28;43163;-80
2023/09/17 09:16:39;;;;;;;2.90;2.70;;;;;;;45.10;22.07;98914.44;5093125;28;42871;-78
2023/09/17 09:19:07;;;;;;;2.92;2.72;;;;;;;44.28;22.26;98900.81;5094704;28;40142;-79
2023/09/17 09:21:35;;;;;;;2.70;2.50;;;;;;;43.67;22.64;98907.78;5093077;28;40946;-81
2023/09/17 09:24:06;;;;;;;3.03;2.83;;;;;;;43.32;23.22;98897.31;5093363;28;43275;-81
2023/09/17 09:26:34;;;;;;;3.58;3.28;;;;;;;43.22;23.50;98891.97;5092824;28;41942;-81
2023/09/17 09:29:03;;;;;;;3.35;3.13;;;;;;;42.20;23.76;98893.63;5093181;28;38942;-80
2023/09/17 09:31:32;;;;;;;2.97;2.78;;;;;;;41.52;24.53;98891.22;5092822;28;42661;-80
2023/09/17 09:34:00;;;;;;;3.85;3.55;;;;;;;41.02;24.90;98883.41;5093287;28;41705;-82
2023/09/17 09:36:28;;;;;;;4.80;3.28;;;;;;;40.33;25.57;98870.69;5092267;28;43751;-80
2023/09/17 09:38:57;;;;;;;3.00;2.80;;;;;;;39.37;26.50;98872.81;5093021;28;40248;-80
2023/09/17 09:41:26;;;;;;;3.17;2.95;;;;;;;38.78;27.02;98864.38;5075308;28;40562;-78
2023/09/17 09:43:56;;;;;;;2.90;2.70;;;;;;;38.26;27.80;98853.56;5073997;28;42627;-78
2023/09/17 09:46:26;;;;;;;3.20;3.00;;;;;;;38.17;28.12;98846.91;5091727;28;42006;-78
2023/09/17 09:48:53;;;;;;;3.30;3.00;;;;;;;38.50;27.78;98846.34;5092865;28;39964;-81
2023/09/17 09:51:22;;;;;;;3.03;2.83;;;;;;;38.69;28.04;98847.50;5093019;28;41912;-79
2023/09/17 09:53:49;;;;;;;3.25;2.95;;;;;;;38.75;27.57;98845.53;5091533;28;42795;-82
2023/09/17 09:56:17;;;;;;;3.60;3.30;;;;;;;38.67;27.68;98826.72;5092766;28;42125;-80
2023/09/17 09:58:46;;;;;;;3.65;3.25;;;;;;;38.44;27.75;98820.63;5091600;28;40143;-80
2023/09/17 10:01:16;;;;;;;3.03;2.80;;;;;;;38.31;27.97;98840.56;5091890;28;41848;-80
2023/09/17 10:03:43;;;;;;;2.88;2.63;;;;;;;38.34;28.21;98795.72;5108200;28;43056;-80
2023/09/17 10:06:11;;;;;;;3.10;2.80;;;;;;;39.41;26.45;98848.16;5074561;28;40987;-79
2023/09/17 10:08:40;;;;;;;3.75;2.33;;;;;;;39.93;26.69;98853.19;5091176;28;40661;-79
2023/09/17 10:11:08;;;;;;;2.55;2.35;;;;;;;40.21;26.51;98835.78;5091567;28;41637;-78
2023/09/17 10:13:36;;;;;;;3.08;2.78;;;;;;;40.17;25.91;98856.91;5075081;28;44552;-79
2023/09/17 10:16:05;;;;;;;2.83;2.63;;;;;;;39.92;26.49;98840.44;5093444;28;42331;-78
2023/09/17 10:18:36;;;;;;;2.88;2.63;;;;;;;40.07;25.89;98823.66;5091888;28;40047;-79
2023/09/17 10:21:06;;;;;;;2.63;2.30;;;;;;;41.22;24.71;98830.41;5075575;28;41020;-79
2023/09/17 10:23:35;;;;;;;2.03;1.92;;;;;;;42.61;23.47;98859.59;5074617;28;42662;-78
2023/09/17 10:26:04;;;;;;;2.47;2.28;;;;;;;43.52;22.21;98873.78;5074601;28;41441;-79
2023/09/17 10:28:34;;;;;;;2.55;2.35;;;;;;;44.24;22.09;98824.44;5074666;28;39625;-80
2023/09/17 10:31:01;;;;;;;2.22;2.08;;;;;;;45.77;20.39;98875.03;5074739;28;41809;-80
2023/09/17 10:33:32;;;;;;;2.85;2.65;;;;;;;46.77;19.73;98874.09;5091554;28;43390;-80
2023/09/17 10:36:05;;;;;;;2.63;2.42;;;;;;;47.65;18.74;98874.25;5090289;28;43218;-80
2023/09/17 10:38:35;;;;;;;2.60;2.40;;;;;;;48.45;18.27;98868.56;5091928;28;38798;-83
2023/09/17 10:41:06;;;;;;;3.75;2.13;;;;;;;48.56;18.14;98867.00;5091531;28;40947;-80
2023/09/17 10:43:35;;;;;;;2.00;1.90;;;;;;;48.02;18.34;98852.88;5091106;28;42399;-82
2023/09/17 10:46:05;;;;;;;1.90;1.75;;;;;;;47.18;18.27;98849.09;5090699;28;42320;-82
2023/09/17 10:48:35;;;;;;;3.20;2.05;;;;;;;46.28;19.48;98851.09;5089413;28;41225;-84
2023/09/17 10:51:03;;;;;;;1.83;1.67;;;;;;;45.79;19.28;98844.75;5090296;28;40975;-81
2023/09/17 10:53:31;;;;;;;1.90;1.80;;;;;;;45.70;20.17;98843.94;5090438;28;42962;-82
2023/09/17 10:56:03;;;;;;;2.40;1.85;;;;;;;45.92;19.56;98823.38;5090488;28;40898;-83
2023/09/17 10:58:37;;;;;;;1.98;1.83;;;;;;;46.56;19.16;98842.31;5073984;28;40168;-82
2023/09/17 11:01:06;;;;;;;1.92;1.83;;;;;;;46.52;17.92;98841.31;5107474;28;42344;-83
2023/09/17 11:03:38;;;;;;;2.55;2.08;;;;;;;45.88;19.07;98836.34;5090385;28;42287;-80
2023/09/17 11:06:15;;;;;;;2.00;1.85;;;;;;;45.25;19.78;98834.09;5073895;28;41507;-86
2023/09/17 11:08:44;;;;;;;2.08;1.88;;;;;;;44.58;20.56;98828.63;5073314;28;40175;-81
2023/09/17 11:11:13;;;;;;;2.30;1.73;;;;;;;44.94;20.35;98826.53;5073215;28;41326;-81
2023/09/17 11:13:41;;;;;;;2.15;2.00;;;;;;;44.06;20.53;98817.06;5092109;28;42466;-80
2023/09/17 11:16:08;;;;;;;1.98;1.88;;;;;;;44.71;20.87;98822.13;5100612;28;42279;-80
2023/09/17 11:18:38;;;;;;;1.90;1.80;;;;;;;45.47;19.88;98828.38;5096342;28;38862;-82
2023/09/17 11:21:08;;;;;;;2.17;1.98;;;;;;;46.07;20.03;98810.88;5091732;28;40970;-83
2023/09/17 11:23:42;;;;;;;3.70;1.92;;;;;;;46.84;19.00;98798.72;5091399;28;43656;-82
2023/09/17 11:26:12;;;;;;;2.55;1.90;;;;;;;47.74;18.59;98832.94;5088338;28;42278;-81
2023/09/17 11:28:40;;;;;;;1.85;1.45;;;;;;;47.58;18.05;98825.44;5091329;28;40766;-81
2023/09/17 11:31:12;;;;;;;2.47;1.70;;;;;;;46.82;17.99;98813.06;5091395;28;42446;-82
2023/09/17 11:33:43;;;;;;;3.42;2.00;;;;;;;46.43;18.87;98816.94;5090951;28;44092;-80
2023/09/17 11:36:11;;;;;;;1.75;1.65;;;;;;;47.30;18.32;98816.66;5088295;28;42717;-83
2023/09/17 11:38:45;;;;;;;2.03;1.60;;;;;;;48.87;16.56;98818.69;5073908;28;39158;-82
2023/09/17 11:41:14;;;;;;;2.03;1.70;;;;;;;50.25;15.64;98833.63;5073834;28;41269;-83